ESOK/KSD METAR and TAF weather

Enter ICAO airport designator
Station Type Date Time Source
ESOK METAR 2019/05/25 14:50 UTC NOAA

ESOK 251450Z 18009KT CAVOK 13/10 Q1005


Station Type Date Time Source
ESOK Decoded METAR 2019/05/25 14:50 UTC NOAA

Karlstad , Sweden (ESOK) 59-26-41N 013-20-15E
May 25, 2019 - 10:50 AM EDT / 2019.05.25 1450 UTC
Wind: from the S (180 degrees) at 10 MPH (9 KT):0
Visibility: greater than 7 mile(s):0
Temperature: 55 F (13 C)
Dew Point: 50 F (10 C)
Relative Humidity: 81%
Pressure (altimeter): 29.68 in. Hg (1005 hPa)
ob: ESOK 251450Z 18009KT CAVOK 13/10 Q1005
cycle: 15

Station Type Date Time Source
ESOK TAF 2017/05/22 06:33 UTC NOAA

TAF ESOK 220530Z 2206/2224 28006KT CAVOK

Example: see airport list